sensor_id;sensor_type;location;lat;lon;timestamp;temperature;humidity
31729;DHT22;18309;43.658;1.312;2024-02-16T00:00:24;14.20;99.90
31729;DHT22;18309;43.658;1.312;2024-02-16T00:02:51;14.20;99.90
31729;DHT22;18309;43.658;1.312;2024-02-16T00:05:17;14.10;99.90
31729;DHT22;18309;43.658;1.312;2024-02-16T00:07:43;14.10;99.90
31729;DHT22;18309;43.658;1.312;2024-02-16T00:10:09;14.10;99.90
31729;DHT22;18309;43.658;1.312;2024-02-16T00:12:35;14.10;99.90
31729;DHT22;18309;43.658;1.312;2024-02-16T00:15:02;14.10;99.90
31729;DHT22;18309;43.658;1.312;2024-02-16T00:17:28;14.10;99.90
31729;DHT22;18309;43.658;1.312;2024-02-16T00:19:57;14.10;99.90
31729;DHT22;18309;43.658;1.312;2024-02-16T00:22:23;14.10;99.90
31729;DHT22;18309;43.658;1.312;2024-02-16T00:24:49;14.10;99.90
31729;DHT22;18309;43.658;1.312;2024-02-16T00:27:16;14.10;99.90
31729;DHT22;18309;43.658;1.312;2024-02-16T00:29:43;14.10;99.90
31729;DHT22;18309;43.658;1.312;2024-02-16T00:32:09;14.10;99.90
31729;DHT22;18309;43.658;1.312;2024-02-16T00:34:36;14.10;99.90
31729;DHT22;18309;43.658;1.312;2024-02-16T00:37:02;14.10;99.90
31729;DHT22;18309;43.658;1.312;2024-02-16T00:39:29;14.10;99.90
31729;DHT22;18309;43.658;1.312;2024-02-16T00:41:55;14.10;99.90
31729;DHT22;18309;43.658;1.312;2024-02-16T00:44:20;14.00;99.90
31729;DHT22;18309;43.658;1.312;2024-02-16T00:46:46;14.10;99.90
31729;DHT22;18309;43.658;1.312;2024-02-16T00:49:12;14.10;99.90
31729;DHT22;18309;43.658;1.312;2024-02-16T00:51:39;14.10;99.90
31729;DHT22;18309;43.658;1.312;2024-02-16T00:54:05;14.10;99.90
31729;DHT22;18309;43.658;1.312;2024-02-16T00:56:32;14.10;99.90
31729;DHT22;18309;43.658;1.312;2024-02-16T00:58:58;14.10;99.90
31729;DHT22;18309;43.658;1.312;2024-02-16T01:01:24;14.10;99.90
31729;DHT22;18309;43.658;1.312;2024-02-16T01:03:52;14.10;99.90
31729;DHT22;18309;43.658;1.312;2024-02-16T01:06:17;14.10;99.90
31729;DHT22;18309;43.658;1.312;2024-02-16T01:08:43;14.10;99.90
31729;DHT22;18309;43.658;1.312;2024-02-16T01:11:09;14.10;99.90
31729;DHT22;18309;43.658;1.312;2024-02-16T01:13:35;14.00;99.90
31729;DHT22;18309;43.658;1.312;2024-02-16T01:16:01;14.10;99.90
31729;DHT22;18309;43.658;1.312;2024-02-16T01:18:28;14.10;99.90
31729;DHT22;18309;43.658;1.312;2024-02-16T01:20:54;14.10;99.90
31729;DHT22;18309;43.658;1.312;2024-02-16T01:23:20;14.10;99.90
31729;DHT22;18309;43.658;1.312;2024-02-16T01:25:46;14.10;99.90
31729;DHT22;18309;43.658;1.312;2024-02-16T01:28:12;14.10;99.90
31729;DHT22;18309;43.658;1.312;2024-02-16T01:30:39;14.00;99.90
31729;DHT22;18309;43.658;1.312;2024-02-16T01:33:05;14.00;99.90
31729;DHT22;18309;43.658;1.312;2024-02-16T01:35:34;14.10;99.90
31729;DHT22;18309;43.658;1.312;2024-02-16T01:38:00;14.00;99.90
31729;DHT22;18309;43.658;1.312;2024-02-16T01:40:29;14.10;99.90
31729;DHT22;18309;43.658;1.312;2024-02-16T01:42:55;14.10;99.90
31729;DHT22;18309;43.658;1.312;2024-02-16T01:45:21;14.00;99.90
31729;DHT22;18309;43.658;1.312;2024-02-16T01:47:51;14.00;99.90
31729;DHT22;18309;43.658;1.312;2024-02-16T01:50:18;14.00;99.90
31729;DHT22;18309;43.658;1.312;2024-02-16T01:52:45;14.00;99.90
31729;DHT22;18309;43.658;1.312;2024-02-16T01:55:11;14.00;99.90
31729;DHT22;18309;43.658;1.312;2024-02-16T01:57:43;14.00;99.90
31729;DHT22;18309;43.658;1.312;2024-02-16T02:00:09;14.00;99.90
31729;DHT22;18309;43.658;1.312;2024-02-16T02:02:36;14.00;99.90
31729;DHT22;18309;43.658;1.312;2024-02-16T02:05:02;14.00;99.90
31729;DHT22;18309;43.658;1.312;2024-02-16T02:07:29;14.00;99.90
31729;DHT22;18309;43.658;1.312;2024-02-16T02:09:55;14.00;99.90
31729;DHT22;18309;43.658;1.312;2024-02-16T02:12:22;14.00;99.90
31729;DHT22;18309;43.658;1.312;2024-02-16T02:14:51;14.00;99.90
31729;DHT22;18309;43.658;1.312;2024-02-16T02:17:18;14.00;99.90
31729;DHT22;18309;43.658;1.312;2024-02-16T02:19:45;14.00;99.90
31729;DHT22;18309;43.658;1.312;2024-02-16T02:22:20;14.00;99.90
31729;DHT22;18309;43.658;1.312;2024-02-16T02:24:46;14.00;99.90
31729;DHT22;18309;43.658;1.312;2024-02-16T02:27:13;14.00;99.90
31729;DHT22;18309;43.658;1.312;2024-02-16T02:29:39;14.00;99.90
31729;DHT22;18309;43.658;1.312;2024-02-16T02:32:06;14.00;99.90
31729;DHT22;18309;43.658;1.312;2024-02-16T02:34:32;14.00;99.90
31729;DHT22;18309;43.658;1.312;2024-02-16T02:36:58;14.00;99.90
31729;DHT22;18309;43.658;1.312;2024-02-16T02:39:23;14.00;99.90
31729;DHT22;18309;43.658;1.312;2024-02-16T02:41:49;14.00;99.90
31729;DHT22;18309;43.658;1.312;2024-02-16T02:44:14;14.00;99.90
31729;DHT22;18309;43.658;1.312;2024-02-16T02:46:40;14.00;99.90
31729;DHT22;18309;43.658;1.312;2024-02-16T02:49:06;13.90;99.90
31729;DHT22;18309;43.658;1.312;2024-02-16T02:51:32;13.90;99.90
31729;DHT22;18309;43.658;1.312;2024-02-16T02:53:57;13.90;99.90
31729;DHT22;18309;43.658;1.312;2024-02-16T02:56:23;13.90;99.90
31729;DHT22;18309;43.658;1.312;2024-02-16T02:58:49;13.90;99.90
31729;DHT22;18309;43.658;1.312;2024-02-16T03:01:14;13.80;99.90
31729;DHT22;18309;43.658;1.312;2024-02-16T03:03:41;13.90;99.90
31729;DHT22;18309;43.658;1.312;2024-02-16T03:06:08;13.80;99.90
31729;DHT22;18309;43.658;1.312;2024-02-16T03:08:35;13.80;99.90
31729;DHT22;18309;43.658;1.312;2024-02-16T03:11:01;13.80;99.90
31729;DHT22;18309;43.658;1.312;2024-02-16T03:13:27;13.80;99.90
31729;DHT22;18309;43.658;1.312;2024-02-16T03:15:52;13.80;99.90
31729;DHT22;18309;43.658;1.312;2024-02-16T03:18:19;13.70;99.90
31729;DHT22;18309;43.658;1.312;2024-02-16T03:20:45;13.70;99.90
31729;DHT22;18309;43.658;1.312;2024-02-16T03:23:14;13.70;99.90
31729;DHT22;18309;43.658;1.312;2024-02-16T03:25:40;13.70;99.90
31729;DHT22;18309;43.658;1.312;2024-02-16T03:28:10;13.70;99.90
31729;DHT22;18309;43.658;1.312;2024-02-16T03:30:37;13.70;99.90
31729;DHT22;18309;43.658;1.312;2024-02-16T03:33:04;13.60;99.90
31729;DHT22;18309;43.658;1.312;2024-02-16T03:35:29;13.60;99.90
31729;DHT22;18309;43.658;1.312;2024-02-16T03:37:55;13.60;99.90
31729;DHT22;18309;43.658;1.312;2024-02-16T03:40:22;13.60;99.90
31729;DHT22;18309;43.658;1.312;2024-02-16T03:42:48;13.60;99.90
31729;DHT22;18309;43.658;1.312;2024-02-16T03:45:14;13.50;99.90
31729;DHT22;18309;43.658;1.312;2024-02-16T03:47:42;13.60;99.90
31729;DHT22;18309;43.658;1.312;2024-02-16T03:50:08;13.60;99.90
31729;DHT22;18309;43.658;1.312;2024-02-16T03:52:34;13.60;99.90
31729;DHT22;18309;43.658;1.312;2024-02-16T03:55:00;13.50;99.90
31729;DHT22;18309;43.658;1.312;2024-02-16T03:57:25;13.50;99.90
31729;DHT22;18309;43.658;1.312;2024-02-16T03:59:52;13.50;99.90
31729;DHT22;18309;43.658;1.312;2024-02-16T04:02:17;13.50;99.90
31729;DHT22;18309;43.658;1.312;2024-02-16T04:04:44;13.50;99.90
31729;DHT22;18309;43.658;1.312;2024-02-16T04:07:11;13.50;99.90
31729;DHT22;18309;43.658;1.312;2024-02-16T04:09:37;13.50;99.90
31729;DHT22;18309;43.658;1.312;2024-02-16T04:12:03;13.50;99.90
31729;DHT22;18309;43.658;1.312;2024-02-16T04:14:32;13.50;99.90
31729;DHT22;18309;43.658;1.312;2024-02-16T04:16:59;13.50;99.90
31729;DHT22;18309;43.658;1.312;2024-02-16T04:19:28;13.50;99.90
31729;DHT22;18309;43.658;1.312;2024-02-16T04:21:55;13.50;99.90
31729;DHT22;18309;43.658;1.312;2024-02-16T04:24:20;13.40;99.90
31729;DHT22;18309;43.658;1.312;2024-02-16T04:26:46;13.40;99.90
31729;DHT22;18309;43.658;1.312;2024-02-16T04:29:12;13.40;99.90
31729;DHT22;18309;43.658;1.312;2024-02-16T04:31:41;13.40;99.90
31729;DHT22;18309;43.658;1.312;2024-02-16T04:34:11;13.40;99.90
31729;DHT22;18309;43.658;1.312;2024-02-16T04:36:37;13.40;99.90
31729;DHT22;18309;43.658;1.312;2024-02-16T04:39:03;13.40;99.90
31729;DHT22;18309;43.658;1.312;2024-02-16T04:41:29;13.40;99.90
31729;DHT22;18309;43.658;1.312;2024-02-16T04:43:54;13.30;99.90
31729;DHT22;18309;43.658;1.312;2024-02-16T04:46:20;13.30;99.90
31729;DHT22;18309;43.658;1.312;2024-02-16T04:48:46;13.30;99.90
31729;DHT22;18309;43.658;1.312;2024-02-16T04:51:12;13.30;99.90
31729;DHT22;18309;43.658;1.312;2024-02-16T04:53:38;13.30;99.90
31729;DHT22;18309;43.658;1.312;2024-02-16T04:56:03;13.30;99.90
31729;DHT22;18309;43.658;1.312;2024-02-16T04:58:30;13.30;99.90
31729;DHT22;18309;43.658;1.312;2024-02-16T05:00:56;13.30;99.90
31729;DHT22;18309;43.658;1.312;2024-02-16T05:03:22;13.30;99.90
31729;DHT22;18309;43.658;1.312;2024-02-16T05:05:48;13.30;99.90
31729;DHT22;18309;43.658;1.312;2024-02-16T05:08:14;13.30;99.90
31729;DHT22;18309;43.658;1.312;2024-02-16T05:10:40;13.30;99.90
31729;DHT22;18309;43.658;1.312;2024-02-16T05:13:06;13.20;99.90
31729;DHT22;18309;43.658;1.312;2024-02-16T05:15:31;13.20;99.90
31729;DHT22;18309;43.658;1.312;2024-02-16T05:17:57;13.20;99.90
31729;DHT22;18309;43.658;1.312;2024-02-16T05:20:23;13.20;99.90
31729;DHT22;18309;43.658;1.312;2024-02-16T05:22:49;13.20;99.90
31729;DHT22;18309;43.658;1.312;2024-02-16T05:25:16;13.20;99.90
31729;DHT22;18309;43.658;1.312;2024-02-16T05:27:43;13.20;99.90
31729;DHT22;18309;43.658;1.312;2024-02-16T05:30:10;13.20;99.90
31729;DHT22;18309;43.658;1.312;2024-02-16T05:32:38;13.20;99.90
31729;DHT22;18309;43.658;1.312;2024-02-16T05:35:05;13.20;99.90
31729;DHT22;18309;43.658;1.312;2024-02-16T05:37:46;13.20;99.90
31729;DHT22;18309;43.658;1.312;2024-02-16T05:40:17;13.20;99.90
31729;DHT22;18309;43.658;1.312;2024-02-16T05:43:09;13.20;99.90
31729;DHT22;18309;43.658;1.312;2024-02-16T05:45:34;13.20;99.90
31729;DHT22;18309;43.658;1.312;2024-02-16T05:48:01;13.10;99.90
31729;DHT22;18309;43.658;1.312;2024-02-16T05:50:26;13.10;99.90
31729;DHT22;18309;43.658;1.312;2024-02-16T05:52:52;13.20;99.90
31729;DHT22;18309;43.658;1.312;2024-02-16T05:55:18;13.20;99.90
31729;DHT22;18309;43.658;1.312;2024-02-16T05:57:46;13.20;99.90
31729;DHT22;18309;43.658;1.312;2024-02-16T06:00:12;13.20;99.90
31729;DHT22;18309;43.658;1.312;2024-02-16T06:02:39;13.20;99.90
31729;DHT22;18309;43.658;1.312;2024-02-16T06:05:05;13.20;99.90
31729;DHT22;18309;43.658;1.312;2024-02-16T06:07:30;13.20;99.90
31729;DHT22;18309;43.658;1.312;2024-02-16T06:09:56;13.10;99.90
31729;DHT22;18309;43.658;1.312;2024-02-16T06:12:23;13.10;99.90
31729;DHT22;18309;43.658;1.312;2024-02-16T06:14:49;13.10;99.90
31729;DHT22;18309;43.658;1.312;2024-02-16T06:17:15;13.10;99.90
31729;DHT22;18309;43.658;1.312;2024-02-16T06:19:42;13.20;99.90
31729;DHT22;18309;43.658;1.312;2024-02-16T06:22:08;13.20;99.90
31729;DHT22;18309;43.658;1.312;2024-02-16T06:24:34;13.20;99.90
31729;DHT22;18309;43.658;1.312;2024-02-16T06:27:00;13.10;99.90
31729;DHT22;18309;43.658;1.312;2024-02-16T06:29:26;13.10;99.90
31729;DHT22;18309;43.658;1.312;2024-02-16T06:31:52;13.10;99.90
31729;DHT22;18309;43.658;1.312;2024-02-16T06:34:18;13.10;99.90
31729;DHT22;18309;43.658;1.312;2024-02-16T06:36:44;13.10;99.90
31729;DHT22;18309;43.658;1.312;2024-02-16T06:39:11;13.10;99.90
31729;DHT22;18309;43.658;1.312;2024-02-16T06:41:37;13.10;99.90
31729;DHT22;18309;43.658;1.312;2024-02-16T06:44:04;13.10;99.90
31729;DHT22;18309;43.658;1.312;2024-02-16T06:46:29;13.10;99.90
31729;DHT22;18309;43.658;1.312;2024-02-16T06:48:56;13.10;99.90
31729;DHT22;18309;43.658;1.312;2024-02-16T06:51:25;13.10;99.90
31729;DHT22;18309;43.658;1.312;2024-02-16T06:53:52;13.10;99.90
31729;DHT22;18309;43.658;1.312;2024-02-16T06:56:18;13.10;99.90
31729;DHT22;18309;43.658;1.312;2024-02-16T06:58:47;12.90;99.90
31729;DHT22;18309;43.658;1.312;2024-02-16T07:01:13;12.30;99.90
31729;DHT22;18309;43.658;1.312;2024-02-16T07:03:40;12.10;99.90
31729;DHT22;18309;43.658;1.312;2024-02-16T07:06:06;12.00;99.90
31729;DHT22;18309;43.658;1.312;2024-02-16T07:08:36;12.00;99.90
31729;DHT22;18309;43.658;1.312;2024-02-16T07:11:01;11.90;99.90
31729;DHT22;18309;43.658;1.312;2024-02-16T07:13:29;11.90;99.90
31729;DHT22;18309;43.658;1.312;2024-02-16T07:15:54;11.80;99.90
31729;DHT22;18309;43.658;1.312;2024-02-16T07:18:21;11.90;99.90
31729;DHT22;18309;43.658;1.312;2024-02-16T07:20:47;11.90;99.90
31729;DHT22;18309;43.658;1.312;2024-02-16T07:23:13;11.90;99.90
31729;DHT22;18309;43.658;1.312;2024-02-16T07:25:41;11.90;99.90
31729;DHT22;18309;43.658;1.312;2024-02-16T07:28:07;11.90;99.90
31729;DHT22;18309;43.658;1.312;2024-02-16T07:30:34;11.90;99.90
31729;DHT22;18309;43.658;1.312;2024-02-16T07:33:00;11.90;99.90
31729;DHT22;18309;43.658;1.312;2024-02-16T07:35:26;11.90;99.90
31729;DHT22;18309;43.658;1.312;2024-02-16T07:37:51;11.80;99.90
31729;DHT22;18309;43.658;1.312;2024-02-16T07:40:22;11.90;99.90
31729;DHT22;18309;43.658;1.312;2024-02-16T07:42:47;11.80;99.90
31729;DHT22;18309;43.658;1.312;2024-02-16T07:45:13;11.90;99.90
31729;DHT22;18309;43.658;1.312;2024-02-16T07:47:42;12.00;99.90
31729;DHT22;18309;43.658;1.312;2024-02-16T07:50:08;12.00;99.90
31729;DHT22;18309;43.658;1.312;2024-02-16T07:52:35;11.90;99.90
31729;DHT22;18309;43.658;1.312;2024-02-16T07:55:00;11.90;99.90
31729;DHT22;18309;43.658;1.312;2024-02-16T07:57:26;12.00;99.90
31729;DHT22;18309;43.658;1.312;2024-02-16T07:59:52;12.00;99.90
31729;DHT22;18309;43.658;1.312;2024-02-16T08:02:18;12.00;99.90
31729;DHT22;18309;43.658;1.312;2024-02-16T08:04:51;12.00;99.90
31729;DHT22;18309;43.658;1.312;2024-02-16T08:07:17;12.00;99.90
31729;DHT22;18309;43.658;1.312;2024-02-16T08:09:46;12.10;99.90
31729;DHT22;18309;43.658;1.312;2024-02-16T08:12:15;12.10;99.90
31729;DHT22;18309;43.658;1.312;2024-02-16T08:14:42;12.20;99.90
31729;DHT22;18309;43.658;1.312;2024-02-16T08:17:08;12.20;99.90
31729;DHT22;18309;43.658;1.312;2024-02-16T08:19:36;12.20;99.90
31729;DHT22;18309;43.658;1.312;2024-02-16T08:22:08;12.20;99.90
31729;DHT22;18309;43.658;1.312;2024-02-16T08:24:35;12.30;99.90
31729;DHT22;18309;43.658;1.312;2024-02-16T08:27:01;12.30;99.90
31729;DHT22;18309;43.658;1.312;2024-02-16T08:29:27;12.30;99.90
31729;DHT22;18309;43.658;1.312;2024-02-16T08:31:55;12.40;99.90
31729;DHT22;18309;43.658;1.312;2024-02-16T08:34:21;12.40;99.90
31729;DHT22;18309;43.658;1.312;2024-02-16T08:36:48;12.40;99.90
31729;DHT22;18309;43.658;1.312;2024-02-16T08:39:14;12.40;99.90
31729;DHT22;18309;43.658;1.312;2024-02-16T08:41:40;12.40;99.90
31729;DHT22;18309;43.658;1.312;2024-02-16T08:44:07;12.40;99.90
31729;DHT22;18309;43.658;1.312;2024-02-16T08:46:35;12.40;99.90
31729;DHT22;18309;43.658;1.312;2024-02-16T08:49:02;12.40;99.90
31729;DHT22;18309;43.658;1.312;2024-02-16T08:51:28;12.40;99.90
31729;DHT22;18309;43.658;1.312;2024-02-16T08:53:54;12.30;99.90
31729;DHT22;18309;43.658;1.312;2024-02-16T08:56:20;12.40;99.90
31729;DHT22;18309;43.658;1.312;2024-02-16T08:58:46;12.40;99.90
31729;DHT22;18309;43.658;1.312;2024-02-16T09:01:12;12.40;99.90
31729;DHT22;18309;43.658;1.312;2024-02-16T09:03:37;12.40;99.90
31729;DHT22;18309;43.658;1.312;2024-02-16T09:06:05;12.40;99.90
31729;DHT22;18309;43.658;1.312;2024-02-16T09:08:32;12.40;99.90
31729;DHT22;18309;43.658;1.312;2024-02-16T09:11:03;12.30;99.90
31729;DHT22;18309;43.658;1.312;2024-02-16T09:13:35;12.50;99.90
31729;DHT22;18309;43.658;1.312;2024-02-16T09:16:02;12.40;99.90
31729;DHT22;18309;43.658;1.312;2024-02-16T09:18:29;12.50;99.90
31729;DHT22;18309;43.658;1.312;2024-02-16T09:20:55;12.60;99.90
31729;DHT22;18309;43.658;1.312;2024-02-16T09:23:21;12.60;99.90
31729;DHT22;18309;43.658;1.312;2024-02-16T09:25:46;12.80;99.90
31729;DHT22;18309;43.658;1.312;2024-02-16T09:28:14;12.80;99.90
31729;DHT22;18309;43.658;1.312;2024-02-16T09:30:39;12.90;99.90
31729;DHT22;18309;43.658;1.312;2024-02-16T09:33:05;13.00;99.90
31729;DHT22;18309;43.658;1.312;2024-02-16T09:35:32;13.10;99.90
31729;DHT22;18309;43.658;1.312;2024-02-16T09:37:58;13.20;99.90
31729;DHT22;18309;43.658;1.312;2024-02-16T09:40:24;13.20;99.90
31729;DHT22;18309;43.658;1.312;2024-02-16T09:42:50;13.30;99.90
31729;DHT22;18309;43.658;1.312;2024-02-16T09:45:16;13.30;99.90
31729;DHT22;18309;43.658;1.312;2024-02-16T09:47:46;13.10;99.90
31729;DHT22;18309;43.658;1.312;2024-02-16T09:50:16;13.10;99.90
31729;DHT22;18309;43.658;1.312;2024-02-16T09:52:49;13.40;99.90
31729;DHT22;18309;43.658;1.312;2024-02-16T09:55:16;13.40;99.90
31729;DHT22;18309;43.658;1.312;2024-02-16T09:57:45;13.60;99.90
31729;DHT22;18309;43.658;1.312;2024-02-16T10:00:11;13.80;99.90
31729;DHT22;18309;43.658;1.312;2024-02-16T10:02:44;13.70;99.90
31729;DHT22;18309;43.658;1.312;2024-02-16T10:05:20;13.90;99.90
31729;DHT22;18309;43.658;1.312;2024-02-16T10:07:47;13.90;99.90
31729;DHT22;18309;43.658;1.312;2024-02-16T10:10:26;14.10;99.90
31729;DHT22;18309;43.658;1.312;2024-02-16T10:13:05;13.90;99.90
31729;DHT22;18309;43.658;1.312;2024-02-16T10:15:34;13.80;99.90
31729;DHT22;18309;43.658;1.312;2024-02-16T10:18:01;13.70;99.90
31729;DHT22;18309;43.658;1.312;2024-02-16T10:20:27;13.80;99.90
31729;DHT22;18309;43.658;1.312;2024-02-16T10:23:04;13.60;99.90
31729;DHT22;18309;43.658;1.312;2024-02-16T10:25:30;13.50;99.90
31729;DHT22;18309;43.658;1.312;2024-02-16T10:27:57;13.50;99.90
31729;DHT22;18309;43.658;1.312;2024-02-16T10:30:28;13.20;99.90
31729;DHT22;18309;43.658;1.312;2024-02-16T10:32:54;13.00;99.90
31729;DHT22;18309;43.658;1.312;2024-02-16T10:35:21;12.70;99.90
31729;DHT22;18309;43.658;1.312;2024-02-16T10:37:47;12.40;99.90
31729;DHT22;18309;43.658;1.312;2024-02-16T10:40:13;12.10;99.90
31729;DHT22;18309;43.658;1.312;2024-02-16T10:42:45;12.20;99.90
31729;DHT22;18309;43.658;1.312;2024-02-16T10:45:12;12.20;99.90
31729;DHT22;18309;43.658;1.312;2024-02-16T10:47:38;11.80;99.90
31729;DHT22;18309;43.658;1.312;2024-02-16T10:50:05;11.80;99.90
31729;DHT22;18309;43.658;1.312;2024-02-16T10:52:32;11.80;99.90
31729;DHT22;18309;43.658;1.312;2024-02-16T10:54:59;11.90;99.90
31729;DHT22;18309;43.658;1.312;2024-02-16T10:57:26;11.80;99.90
31729;DHT22;18309;43.658;1.312;2024-02-16T10:59:53;11.90;99.90
31729;DHT22;18309;43.658;1.312;2024-02-16T11:02:20;11.80;99.90
31729;DHT22;18309;43.658;1.312;2024-02-16T11:04:46;11.80;99.90
31729;DHT22;18309;43.658;1.312;2024-02-16T11:07:16;12.10;99.90
31729;DHT22;18309;43.658;1.312;2024-02-16T11:09:44;12.00;99.90
31729;DHT22;18309;43.658;1.312;2024-02-16T11:12:12;12.10;99.90
31729;DHT22;18309;43.658;1.312;2024-02-16T11:14:43;12.30;99.90
31729;DHT22;18309;43.658;1.312;2024-02-16T11:17:09;12.40;99.90
31729;DHT22;18309;43.658;1.312;2024-02-16T11:19:35;12.40;99.90
31729;DHT22;18309;43.658;1.312;2024-02-16T11:22:05;12.30;99.90
31729;DHT22;18309;43.658;1.312;2024-02-16T11:24:35;12.30;99.90
31729;DHT22;18309;43.658;1.312;2024-02-16T11:27:05;12.40;99.90
31729;DHT22;18309;43.658;1.312;2024-02-16T11:29:33;12.50;99.90
31729;DHT22;18309;43.658;1.312;2024-02-16T11:32:03;12.50;99.90
31729;DHT22;18309;43.658;1.312;2024-02-16T11:34:29;12.50;99.90
31729;DHT22;18309;43.658;1.312;2024-02-16T11:36:59;12.70;99.90
31729;DHT22;18309;43.658;1.312;2024-02-16T11:39:26;12.70;99.90
31729;DHT22;18309;43.658;1.312;2024-02-16T11:44:31;12.50;99.90
31729;DHT22;18309;43.658;1.312;2024-02-16T11:46:58;12.60;99.90
31729;DHT22;18309;43.658;1.312;2024-02-16T11:49:23;12.50;99.90
31729;DHT22;18309;43.658;1.312;2024-02-16T11:51:50;12.50;99.90
31729;DHT22;18309;43.658;1.312;2024-02-16T11:54:16;12.60;99.90
31729;DHT22;18309;43.658;1.312;2024-02-16T11:56:45;12.60;99.90
31729;DHT22;18309;43.658;1.312;2024-02-16T11:59:15;12.60;99.90
31729;DHT22;18309;43.658;1.312;2024-02-16T12:01:57;12.60;99.90
31729;DHT22;18309;43.658;1.312;2024-02-16T12:04:27;12.70;99.90
31729;DHT22;18309;43.658;1.312;2024-02-16T12:09:21;12.70;99.90
31729;DHT22;18309;43.658;1.312;2024-02-16T12:11:48;12.60;99.90
31729;DHT22;18309;43.658;1.312;2024-02-16T12:14:15;12.70;99.90
31729;DHT22;18309;43.658;1.312;2024-02-16T12:16:41;12.60;99.90
31729;DHT22;18309;43.658;1.312;2024-02-16T12:19:07;12.70;99.90
31729;DHT22;18309;43.658;1.312;2024-02-16T12:21:34;12.70;99.90
31729;DHT22;18309;43.658;1.312;2024-02-16T12:24:00;12.70;99.90
31729;DHT22;18309;43.658;1.312;2024-02-16T12:26:26;12.80;99.90
31729;DHT22;18309;43.658;1.312;2024-02-16T12:28:51;12.80;99.90
31729;DHT22;18309;43.658;1.312;2024-02-16T12:31:24;12.80;99.90
31729;DHT22;18309;43.658;1.312;2024-02-16T12:33:52;12.80;99.90
31729;DHT22;18309;43.658;1.312;2024-02-16T12:36:17;12.90;99.90
31729;DHT22;18309;43.658;1.312;2024-02-16T12:38:43;12.90;99.90
31729;DHT22;18309;43.658;1.312;2024-02-16T12:41:09;13.00;99.90
31729;DHT22;18309;43.658;1.312;2024-02-16T12:43:35;13.00;99.90
31729;DHT22;18309;43.658;1.312;2024-02-16T12:46:01;13.00;99.90
31729;DHT22;18309;43.658;1.312;2024-02-16T12:48:29;13.10;99.90
31729;DHT22;18309;43.658;1.312;2024-02-16T12:50:55;13.10;99.90
31729;DHT22;18309;43.658;1.312;2024-02-16T12:53:21;13.10;99.90
31729;DHT22;18309;43.658;1.312;2024-02-16T12:55:50;13.10;99.90
31729;DHT22;18309;43.658;1.312;2024-02-16T12:58:16;13.20;99.90
31729;DHT22;18309;43.658;1.312;2024-02-16T13:00:41;13.20;99.90
31729;DHT22;18309;43.658;1.312;2024-02-16T13:03:07;13.20;99.90
31729;DHT22;18309;43.658;1.312;2024-02-16T13:05:33;13.20;99.90
31729;DHT22;18309;43.658;1.312;2024-02-16T13:07:59;13.20;99.90
31729;DHT22;18309;43.658;1.312;2024-02-16T13:10:25;13.30;99.90
31729;DHT22;18309;43.658;1.312;2024-02-16T13:12:51;13.30;99.90
31729;DHT22;18309;43.658;1.312;2024-02-16T13:15:17;13.30;99.90
31729;DHT22;18309;43.658;1.312;2024-02-16T13:17:42;13.30;99.90
31729;DHT22;18309;43.658;1.312;2024-02-16T13:20:08;13.30;99.90
31729;DHT22;18309;43.658;1.312;2024-02-16T13:22:37;13.40;99.90
31729;DHT22;18309;43.658;1.312;2024-02-16T13:25:03;13.30;99.90
31729;DHT22;18309;43.658;1.312;2024-02-16T13:27:30;13.30;99.90
31729;DHT22;18309;43.658;1.312;2024-02-16T13:29:55;13.40;99.90
31729;DHT22;18309;43.658;1.312;2024-02-16T13:32:21;13.30;99.90
31729;DHT22;18309;43.658;1.312;2024-02-16T13:34:48;13.30;99.90
31729;DHT22;18309;43.658;1.312;2024-02-16T13:37:13;13.40;99.90
31729;DHT22;18309;43.658;1.312;2024-02-16T13:39:39;13.40;99.90
31729;DHT22;18309;43.658;1.312;2024-02-16T13:42:05;13.40;99.90
31729;DHT22;18309;43.658;1.312;2024-02-16T13:44:31;13.40;99.90
31729;DHT22;18309;43.658;1.312;2024-02-16T13:46:57;13.40;99.90
31729;DHT22;18309;43.658;1.312;2024-02-16T13:49:23;13.40;99.90
31729;DHT22;18309;43.658;1.312;2024-02-16T13:51:48;13.40;99.90
31729;DHT22;18309;43.658;1.312;2024-02-16T13:54:14;13.30;99.90
31729;DHT22;18309;43.658;1.312;2024-02-16T13:56:40;13.40;99.90
31729;DHT22;18309;43.658;1.312;2024-02-16T13:59:06;13.30;99.90
31729;DHT22;18309;43.658;1.312;2024-02-16T14:01:36;13.30;99.90
31729;DHT22;18309;43.658;1.312;2024-02-16T14:04:03;13.20;99.90
31729;DHT22;18309;43.658;1.312;2024-02-16T14:06:29;13.00;99.90
31729;DHT22;18309;43.658;1.312;2024-02-16T14:08:56;12.80;99.90
31729;DHT22;18309;43.658;1.312;2024-02-16T14:11:23;12.70;99.90
31729;DHT22;18309;43.658;1.312;2024-02-16T14:13:48;12.60;99.90
31729;DHT22;18309;43.658;1.312;2024-02-16T14:16:14;12.60;99.90
31729;DHT22;18309;43.658;1.312;2024-02-16T14:18:40;12.50;99.90
31729;DHT22;18309;43.658;1.312;2024-02-16T14:21:06;12.60;99.90
31729;DHT22;18309;43.658;1.312;2024-02-16T14:23:32;12.50;99.90
31729;DHT22;18309;43.658;1.312;2024-02-16T14:25:58;12.40;99.90
31729;DHT22;18309;43.658;1.312;2024-02-16T14:28:24;12.30;99.90
31729;DHT22;18309;43.658;1.312;2024-02-16T14:30:50;12.30;99.90
31729;DHT22;18309;43.658;1.312;2024-02-16T14:33:19;12.30;99.90
31729;DHT22;18309;43.658;1.312;2024-02-16T14:35:44;12.20;99.90
31729;DHT22;18309;43.658;1.312;2024-02-16T14:38:11;12.20;99.90
31729;DHT22;18309;43.658;1.312;2024-02-16T14:40:38;12.20;99.90
31729;DHT22;18309;43.658;1.312;2024-02-16T14:43:04;12.20;99.90
31729;DHT22;18309;43.658;1.312;2024-02-16T14:45:30;12.10;99.90
31729;DHT22;18309;43.658;1.312;2024-02-16T14:47:55;12.10;99.90
31729;DHT22;18309;43.658;1.312;2024-02-16T14:50:23;12.10;99.90
31729;DHT22;18309;43.658;1.312;2024-02-16T14:52:49;12.10;99.90
31729;DHT22;18309;43.658;1.312;2024-02-16T14:55:15;12.00;99.90
31729;DHT22;18309;43.658;1.312;2024-02-16T14:57:41;12.00;99.90
31729;DHT22;18309;43.658;1.312;2024-02-16T15:00:08;12.10;99.90
31729;DHT22;18309;43.658;1.312;2024-02-16T15:02:34;12.00;99.90
31729;DHT22;18309;43.658;1.312;2024-02-16T15:04:59;12.10;99.90
31729;DHT22;18309;43.658;1.312;2024-02-16T15:07:25;12.00;99.90
31729;DHT22;18309;43.658;1.312;2024-02-16T15:09:51;12.00;99.90
31729;DHT22;18309;43.658;1.312;2024-02-16T15:12:17;12.00;99.90
31729;DHT22;18309;43.658;1.312;2024-02-16T15:14:47;11.90;99.90
31729;DHT22;18309;43.658;1.312;2024-02-16T15:17:14;11.90;99.90
31729;DHT22;18309;43.658;1.312;2024-02-16T15:19:40;11.90;99.90
31729;DHT22;18309;43.658;1.312;2024-02-16T15:22:06;11.90;99.90
31729;DHT22;18309;43.658;1.312;2024-02-16T15:24:32;11.90;99.90
31729;DHT22;18309;43.658;1.312;2024-02-16T15:26:58;11.90;99.90
31729;DHT22;18309;43.658;1.312;2024-02-16T15:29:23;11.80;99.90
31729;DHT22;18309;43.658;1.312;2024-02-16T15:31:49;11.80;99.90